Time;durP1;ratioP1;P1;durP2;ratioP2;P2;SDS_P1;SDS_P2;PMS_P1;PMS_P2;Temp;Humidity;BMP_temperature;BMP_pressure;BME280_temperature;BME280_humidity;BME280_pressure;Samples;Min_cycle;Max_cycle;Signal;HPM_P1;HPM_P2
2022/12/07 00:02:05;;;;;;;6.90;1.50;;;5.80;99.90;;;;;;5069366;28;20175;-75
2022/12/07 00:04:30;;;;;;;8.48;1.63;;;5.80;99.90;;;;;;5071434;28;20198;-75
2022/12/07 00:06:56;;;;;;;12.73;1.52;;;5.80;99.90;;;;;;5070955;28;20206;-75
2022/12/07 00:09:22;;;;;;;9.50;1.50;;;5.80;99.90;;;;;;5060743;28;20285;-75
2022/12/07 00:11:50;;;;;;;12.00;1.38;;;5.80;99.90;;;;;;5069417;28;20743;-75
2022/12/07 00:14:17;;;;;;;13.32;1.73;;;5.80;99.90;;;;;;5069457;28;20175;-75
2022/12/07 00:16:44;;;;;;;16.20;1.65;;;5.80;99.90;;;;;;5070652;28;20190;-75
2022/12/07 00:19:11;;;;;;;12.45;1.42;;;5.80;99.90;;;;;;5029892;28;1114388;-76
2022/12/07 00:21:37;;;;;;;11.10;1.70;;;5.80;99.90;;;;;;5072883;28;20201;-76
2022/12/07 00:24:04;;;;;;;13.63;1.80;;;5.80;99.90;;;;;;5061496;28;20187;-76
2022/12/07 00:26:36;;;;;;;7.78;1.52;;;5.90;99.90;;;;;;5066442;28;20549;-76
2022/12/07 00:29:06;;;;;;;10.35;1.77;;;5.90;99.90;;;;;;5054030;28;20186;-75
2022/12/07 00:31:38;;;;;;;7.57;1.65;;;5.90;99.90;;;;;;5063643;28;20175;-75
2022/12/07 00:34:11;;;;;;;17.83;1.77;;;5.90;99.90;;;;;;5065173;28;20303;-75
2022/12/07 00:36:36;;;;;;;12.35;1.77;;;5.90;99.90;;;;;;5072314;28;20170;-76
2022/12/07 00:39:03;;;;;;;12.15;1.88;;;5.90;99.90;;;;;;5070161;28;20178;-75
2022/12/07 00:41:29;;;;;;;12.13;1.98;;;5.90;99.90;;;;;;5072345;28;20166;-76
2022/12/07 00:43:56;;;;;;;8.13;1.70;;;5.90;99.90;;;;;;5067454;28;20186;-75
2022/12/07 00:46:23;;;;;;;7.88;1.35;;;5.90;99.90;;;;;;5072021;28;20208;-74
2022/12/07 00:48:50;;;;;;;6.88;1.20;;;5.90;99.90;;;;;;5070715;28;20209;-75
2022/12/07 00:51:18;;;;;;;7.47;1.23;;;5.90;99.90;;;;;;5072821;28;20638;-75
2022/12/07 00:53:44;;;;;;;8.68;1.65;;;5.90;99.90;;;;;;5073870;28;20261;-74
2022/12/07 00:56:29;;;;;;;8.82;1.40;;;5.90;99.90;;;;;;5073179;28;20174;-75
2022/12/07 00:58:57;;;;;;;9.18;1.60;;;5.90;99.90;;;;;;5073769;28;20182;-76
2022/12/07 01:01:25;;;;;;;5.22;1.10;;;5.90;99.90;;;;;;5076053;28;20228;-75
2022/12/07 01:03:51;;;;;;;5.30;1.20;;;5.90;99.90;;;;;;5071912;28;20264;-75
2022/12/07 01:06:19;;;;;;;9.82;1.27;;;5.90;99.90;;;;;;5074066;28;20190;-75
2022/12/07 01:08:44;;;;;;;8.82;1.27;;;5.90;99.90;;;;;;5074236;28;20214;-76
2022/12/07 01:11:14;;;;;;;6.43;1.15;;;6.00;99.90;;;;;;5074948;28;20309;-75
2022/12/07 01:13:40;;;;;;;7.22;1.25;;;5.90;99.90;;;;;;5074768;28;20206;-79
2022/12/07 01:16:07;;;;;;;10.10;1.40;;;5.90;99.90;;;;;;5072432;28;20182;-75
2022/12/07 01:18:34;;;;;;;8.20;1.08;;;5.90;99.90;;;;;;5073530;28;20230;-75
2022/12/07 01:21:12;;;;;;;5.18;1.08;;;5.90;99.90;;;;;;5072067;28;20635;-75
2022/12/07 01:23:38;;;;;;;8.75;1.23;;;5.90;99.90;;;;;;5090151;28;20237;-75
2022/12/07 01:26:08;;;;;;;4.50;1.02;;;5.90;99.90;;;;;;5069794;28;20531;-75
2022/12/07 01:28:34;;;;;;;8.75;1.40;;;5.80;99.90;;;;;;5074200;28;20256;-77
2022/12/07 01:31:02;;;;;;;8.52;1.23;;;5.80;99.90;;;;;;5073429;28;20546;-77
2022/12/07 01:33:30;;;;;;;6.30;1.20;;;5.80;99.90;;;;;;5072750;28;20277;-76
2022/12/07 01:36:08;;;;;;;9.88;1.35;;;5.80;99.90;;;;;;5072719;28;20755;-76
2022/12/07 01:38:34;;;;;;;8.43;1.35;;;5.90;99.90;;;;;;5071344;28;20186;-75
2022/12/07 01:41:01;;;;;;;14.23;1.45;;;5.90;99.90;;;;;;5055587;28;20671;-76
2022/12/07 01:43:30;;;;;;;6.18;1.00;;;6.00;99.90;;;;;;5056946;28;20184;-75
2022/12/07 01:45:56;;;;;;;12.02;1.48;;;5.90;99.90;;;;;;5072248;28;20631;-77
2022/12/07 01:48:28;;;;;;;7.30;1.40;;;6.00;99.90;;;;;;5071947;28;20708;-76
2022/12/07 01:50:56;;;;;;;6.68;1.20;;;5.90;99.90;;;;;;5074464;28;20582;-75
2022/12/07 01:53:26;;;;;;;9.18;1.25;;;5.90;99.90;;;;;;5073248;28;20202;-76
2022/12/07 01:55:53;;;;;;;7.18;1.30;;;6.00;99.90;;;;;;5075103;28;20174;-76
2022/12/07 01:58:20;;;;;;;9.13;1.33;;;5.90;99.90;;;;;;5068450;28;20221;-76
2022/12/07 02:00:46;;;;;;;5.28;1.05;;;5.90;99.90;;;;;;5053826;28;20221;-75
2022/12/07 02:03:25;;;;;;;9.70;1.10;;;5.80;99.90;;;;;;5065738;28;20237;-77
2022/12/07 02:05:52;;;;;;;3.90;1.00;;;5.90;99.90;;;;;;5074150;28;20171;-75
2022/12/07 02:08:19;;;;;;;16.77;1.67;;;5.90;99.90;;;;;;5071019;28;20218;-75
2022/12/07 02:10:45;;;;;;;5.22;1.38;;;5.90;99.90;;;;;;5065267;28;20191;-77
2022/12/07 02:13:22;;;;;;;8.40;1.40;;;5.90;99.90;;;;;;5069868;28;20191;-78
2022/12/07 02:16:19;;;;;;;11.68;1.45;;;5.90;99.90;;;;;;5054917;28;20257;-75
2022/12/07 02:19:03;;;;;;;5.85;1.20;;;5.80;99.90;;;;;;5063599;28;20242;-75
2022/12/07 02:22:01;;;;;;;9.65;1.42;;;5.80;99.90;;;;;;5072295;28;20224;-75
2022/12/07 02:24:57;;;;;;;8.13;1.38;;;5.80;99.90;;;;;;5067903;28;20186;-75
2022/12/07 02:27:38;;;;;;;13.38;1.50;;;5.80;99.90;;;;;;5054366;28;20199;-76
2022/12/07 02:30:12;;;;;;;9.98;1.38;;;5.70;99.90;;;;;;5072272;28;20179;-75
2022/12/07 02:33:15;;;;;;;8.52;1.30;;;5.70;99.90;;;;;;5072669;28;20194;-75
2022/12/07 02:36:08;;;;;;;6.30;1.25;;;5.70;99.90;;;;;;5024645;28;20750;-75
2022/12/07 02:39:02;;;;;;;13.75;1.60;;;5.70;99.90;;;;;;5062965;28;20206;-76
2022/12/07 02:41:43;;;;;;;13.27;2.03;;;5.60;99.90;;;;;;5069454;28;20300;-75
2022/12/07 02:44:16;;;;;;;9.00;1.58;;;5.60;99.90;;;;;;5072830;28;20181;-76
2022/12/07 02:46:57;;;;;;;16.17;1.73;;;5.60;99.90;;;;;;5074013;28;20177;-76
2022/12/07 02:49:25;;;;;;;15.13;1.90;;;5.60;99.90;;;;;;5061051;28;20217;-75
2022/12/07 02:51:53;;;;;;;9.77;1.60;;;5.60;99.90;;;;;;5072846;28;20186;-75
2022/12/07 02:54:19;;;;;;;10.60;1.52;;;5.60;99.90;;;;;;5071941;28;20239;-75
2022/12/07 02:56:47;;;;;;;10.77;1.25;;;5.50;99.90;;;;;;5089122;28;20190;-75
2022/12/07 02:59:55;;;;;;;10.45;1.52;;;5.60;99.90;;;;;;5071632;28;20583;-77
2022/12/07 03:02:26;;;;;;;14.52;1.63;;;5.60;99.90;;;;;;5072844;28;20178;-75
2022/12/07 03:05:17;;;;;;;7.07;1.00;;;5.60;99.90;;;;;;5076565;28;20530;-76
2022/12/07 03:08:24;;;;;;;9.23;1.20;;;5.60;99.90;;;;;;5085701;28;20215;-74
2022/12/07 03:10:56;;;;;;;8.13;1.63;;;5.50;99.90;;;;;;5069935;28;20198;-76
2022/12/07 03:13:25;;;;;;;11.82;1.10;;;5.60;99.90;;;;;;5071809;28;20541;-76
2022/12/07 03:15:58;;;;;;;9.27;1.50;;;5.50;99.90;;;;;;5072845;28;20202;-75
2022/12/07 03:18:27;;;;;;;8.18;1.50;;;5.50;99.90;;;;;;5071608;28;20280;-77
2022/12/07 03:20:56;;;;;;;11.50;1.55;;;5.50;99.90;;;;;;5068189;28;20710;-76
2022/12/07 03:23:25;;;;;;;7.70;1.40;;;5.50;99.90;;;;;;5071195;28;20705;-75
2022/12/07 03:25:56;;;;;;;7.35;1.60;;;5.50;99.90;;;;;;5072720;28;20209;-75
2022/12/07 03:28:27;;;;;;;7.18;1.30;;;5.50;99.90;;;;;;5070525;28;20194;-76
2022/12/07 03:31:02;;;;;;;9.55;1.17;;;5.50;99.90;;;;;;5062131;28;20183;-76
2022/12/07 03:33:56;;;;;;;5.72;1.17;;;5.50;99.90;;;;;;5070438;28;20190;-74
2022/12/07 03:36:28;;;;;;;9.02;1.40;;;5.50;99.90;;;;;;5069026;28;20282;-74
2022/12/07 03:39:09;;;;;;;9.35;1.50;;;5.50;99.90;;;;;;5061083;28;20267;-74
2022/12/07 03:41:36;;;;;;;8.73;1.10;;;5.50;99.90;;;;;;5069164;28;20189;-75
2022/12/07 03:44:03;;;;;;;7.55;1.27;;;5.50;99.90;;;;;;5070508;28;20193;-76
2022/12/07 03:46:50;;;;;;;7.82;1.25;;;5.40;99.90;;;;;;5072046;28;20681;-76
2022/12/07 03:49:25;;;;;;;6.03;1.17;;;5.40;99.90;;;;;;5061705;28;20527;-80
2022/12/07 03:52:14;;;;;;;8.85;1.13;;;5.40;99.90;;;;;;5071917;28;20212;-78
2022/12/07 03:55:04;;;;;;;11.90;1.33;;;5.40;99.90;;;;;;5068604;28;20185;-76
2022/12/07 03:57:31;;;;;;;10.68;1.40;;;5.40;99.90;;;;;;5072969;28;20247;-76
2022/12/07 03:59:58;;;;;;;10.45;1.35;;;5.40;99.90;;;;;;5068165;28;20898;-76
2022/12/07 04:02:26;;;;;;;9.63;1.13;;;5.40;99.90;;;;;;5071808;28;20183;-75
2022/12/07 04:04:52;;;;;;;11.02;1.55;;;5.40;99.90;;;;;;5075689;28;20186;-76
2022/12/07 04:07:18;;;;;;;10.80;1.27;;;5.40;99.90;;;;;;5092855;28;20228;-76
2022/12/07 04:09:44;;;;;;;7.97;1.00;;;5.40;99.90;;;;;;5074421;28;20606;-76
2022/12/07 04:12:09;;;;;;;10.05;1.40;;;5.30;99.90;;;;;;5070632;28;20167;-76
2022/12/07 04:14:35;;;;;;;8.80;1.08;;;5.40;99.90;;;;;;5065448;28;20189;-76
2022/12/07 04:17:01;;;;;;;8.77;1.25;;;5.30;99.90;;;;;;5088128;28;20186;-76
2022/12/07 04:19:31;;;;;;;6.47;0.80;;;5.30;99.90;;;;;;5068628;28;20243;-76
2022/12/07 04:21:59;;;;;;;9.65;1.02;;;5.30;99.90;;;;;;5070679;28;20174;-75
2022/12/07 04:24:25;;;;;;;9.38;1.02;;;5.20;99.90;;;;;;5069225;28;20189;-77
2022/12/07 04:26:51;;;;;;;7.28;1.25;;;5.20;99.90;;;;;;5060240;28;20183;-75
2022/12/07 04:29:18;;;;;;;8.15;1.10;;;5.20;99.90;;;;;;5069748;28;20178;-80
2022/12/07 04:31:44;;;;;;;8.00;1.17;;;5.20;99.90;;;;;;5069622;28;20182;-78
2022/12/07 04:34:11;;;;;;;20.05;1.30;;;5.20;99.90;;;;;;5071312;28;20206;-77
2022/12/07 04:36:38;;;;;;;8.52;1.25;;;5.20;99.90;;;;;;5072756;28;20209;-77
2022/12/07 04:39:05;;;;;;;3.97;1.05;;;5.30;99.90;;;;;;5069149;28;20634;-80
2022/12/07 04:41:31;;;;;;;6.97;1.20;;;5.30;99.90;;;;;;5068563;28;20658;-75
2022/12/07 04:44:02;;;;;;;11.00;1.08;;;5.20;99.90;;;;;;5064485;28;20186;-76
2022/12/07 04:46:30;;;;;;;4.70;1.27;;;5.30;99.90;;;;;;5067075;28;20186;-76
2022/12/07 04:48:57;;;;;;;6.90;1.02;;;5.20;99.90;;;;;;5062077;28;20206;-76
2022/12/07 04:51:25;;;;;;;9.07;1.67;;;5.20;99.90;;;;;;5069351;28;20277;-76
2022/12/07 04:53:51;;;;;;;7.55;1.05;;;5.20;99.90;;;;;;5069907;28;20231;-77
2022/12/07 04:56:18;;;;;;;11.73;1.40;;;5.20;99.90;;;;;;5072395;28;20269;-76
2022/12/07 04:58:45;;;;;;;5.70;1.10;;;5.20;99.90;;;;;;5068599;28;20537;-76
2022/12/07 05:01:11;;;;;;;5.88;1.30;;;5.10;99.90;;;;;;5071227;28;20278;-77
2022/12/07 05:03:37;;;;;;;5.15;1.15;;;5.10;99.90;;;;;;5067466;28;20225;-76
2022/12/07 05:06:04;;;;;;;7.18;1.30;;;5.10;99.90;;;;;;5072324;28;20185;-76
2022/12/07 05:08:30;;;;;;;6.63;1.08;;;5.10;99.90;;;;;;5068248;28;20222;-77
2022/12/07 05:10:56;;;;;;;6.80;1.13;;;5.10;99.90;;;;;;5069387;28;20197;-77
2022/12/07 05:13:21;;;;;;;12.38;1.33;;;5.00;99.90;;;;;;5068561;28;20189;-77
2022/12/07 05:15:48;;;;;;;9.10;1.40;;;5.00;99.90;;;;;;5072109;28;20182;-77
2022/12/07 05:18:14;;;;;;;9.60;1.23;;;5.00;99.90;;;;;;5070815;28;20226;-77
2022/12/07 05:20:41;;;;;;;5.72;1.00;;;5.00;99.90;;;;;;5067108;28;20167;-77
2022/12/07 05:23:06;;;;;;;9.95;1.33;;;5.00;99.90;;;;;;5076593;28;20176;-77
2022/12/07 05:25:32;;;;;;;11.77;1.10;;;4.90;99.90;;;;;;5070071;28;20252;-76
2022/12/07 05:27:58;;;;;;;8.07;1.20;;;5.00;99.90;;;;;;5072379;28;20212;-75
2022/12/07 05:30:25;;;;;;;6.38;1.38;;;4.90;99.90;;;;;;5069753;28;20278;-75
2022/12/07 05:32:51;;;;;;;8.05;1.38;;;4.90;99.90;;;;;;5068873;28;20615;-76
2022/12/07 05:35:18;;;;;;;7.22;1.35;;;4.90;99.90;;;;;;5071076;28;20247;-76
2022/12/07 05:37:44;;;;;;;7.13;1.15;;;4.90;99.90;;;;;;5071380;28;20208;-78
2022/12/07 05:40:11;;;;;;;7.85;1.52;;;4.90;99.90;;;;;;5072737;28;20179;-77
2022/12/07 05:42:38;;;;;;;6.05;1.20;;;4.90;99.90;;;;;;5072579;28;20274;-77
2022/12/07 05:45:04;;;;;;;7.22;1.33;;;4.90;99.90;;;;;;5072445;28;20273;-77
2022/12/07 05:47:30;;;;;;;15.57;1.48;;;4.80;99.90;;;;;;5069454;28;20275;-77
2022/12/07 05:49:55;;;;;;;7.95;1.55;;;4.80;99.90;;;;;;5072603;28;20194;-78
2022/12/07 05:52:21;;;;;;;6.10;1.50;;;4.80;99.90;;;;;;5070502;28;20190;-76
2022/12/07 05:54:47;;;;;;;9.68;1.30;;;4.80;99.90;;;;;;5071557;28;20598;-77
2022/12/07 05:57:13;;;;;;;10.07;1.40;;;4.80;99.90;;;;;;5073721;28;20191;-78
2022/12/07 05:59:38;;;;;;;10.52;1.70;;;4.80;99.90;;;;;;5073792;28;20182;-76
2022/12/07 06:02:13;;;;;;;8.35;1.38;;;4.70;99.90;;;;;;5072027;28;20290;-76
2022/12/07 06:04:42;;;;;;;15.40;1.73;;;4.70;99.90;;;;;;5078373;28;20187;-76
2022/12/07 06:07:09;;;;;;;10.15;1.60;;;4.80;99.90;;;;;;5054343;28;20215;-77
2022/12/07 06:09:35;;;;;;;9.50;1.50;;;4.70;99.90;;;;;;5063246;28;20189;-76
2022/12/07 06:14:46;;;;;;;8.52;1.40;;;4.70;99.90;;;;;;5066267;28;20194;-75
2022/12/07 06:17:13;;;;;;;15.27;1.60;;;4.70;99.90;;;;;;5062742;28;20198;-75
2022/12/07 06:19:39;;;;;;;11.27;1.95;;;4.60;99.90;;;;;;5068904;28;20316;-79
2022/12/07 06:22:06;;;;;;;5.63;1.27;;;4.70;99.90;;;;;;5072937;28;20191;-75
2022/12/07 06:24:33;;;;;;;9.02;1.40;;;4.70;99.90;;;;;;5071404;28;20198;-75
2022/12/07 06:26:59;;;;;;;7.72;1.83;;;4.70;99.90;;;;;;5067717;28;20661;-79
2022/12/07 06:29:25;;;;;;;9.93;1.42;;;4.80;99.90;;;;;;5065264;28;20208;-81
2022/12/07 06:31:51;;;;;;;9.23;1.30;;;4.70;99.90;;;;;;5072275;28;20510;-76
2022/12/07 06:34:19;;;;;;;14.57;1.63;;;4.70;99.90;;;;;;5070632;28;20265;-75
2022/12/07 06:36:47;;;;;;;12.20;1.40;;;4.70;99.90;;;;;;5064656;28;20263;-82
2022/12/07 06:39:13;;;;;;;7.40;1.02;;;4.80;99.90;;;;;;5064609;28;20192;-80
2022/12/07 06:41:39;;;;;;;11.00;1.55;;;4.80;99.90;;;;;;5067410;28;20270;-77
2022/12/07 06:44:06;;;;;;;8.98;1.30;;;4.80;99.90;;;;;;5070313;28;20191;-75
2022/12/07 06:46:32;;;;;;;13.73;1.73;;;4.90;99.90;;;;;;5071268;28;20198;-75
2022/12/07 06:48:58;;;;;;;5.15;1.10;;;4.80;99.90;;;;;;5069163;28;20211;-78
2022/12/07 06:51:24;;;;;;;11.07;1.67;;;4.80;99.90;;;;;;5070598;28;20182;-77
2022/12/07 06:53:49;;;;;;;5.15;1.30;;;4.80;99.90;;;;;;5068758;28;20189;-77
2022/12/07 06:56:16;;;;;;;4.43;1.30;;;4.80;99.90;;;;;;5053516;28;20187;-77
2022/12/07 06:58:42;;;;;;;12.75;1.60;;;4.90;99.90;;;;;;5055665;28;20182;-76
2022/12/07 07:01:13;;;;;;;7.47;1.42;;;4.80;99.90;;;;;;5063740;28;20712;-77
2022/12/07 07:03:38;;;;;;;13.73;1.83;;;4.80;99.90;;;;;;5056653;28;20253;-76
2022/12/07 07:06:07;;;;;;;6.82;1.25;;;4.80;99.90;;;;;;5069730;28;20637;-76
2022/12/07 07:08:33;;;;;;;5.03;1.60;;;4.80;99.90;;;;;;5069914;28;20214;-78
2022/12/07 07:10:59;;;;;;;9.73;1.73;;;4.70;99.90;;;;;;5069738;28;20191;-77
2022/12/07 07:13:25;;;;;;;6.50;1.20;;;4.70;99.90;;;;;;5074968;28;20182;-76
2022/12/07 07:15:50;;;;;;;6.22;1.17;;;4.80;99.90;;;;;;5066483;28;20183;-76
2022/12/07 07:18:16;;;;;;;8.75;1.25;;;4.70;99.90;;;;;;5054329;28;20632;-78
2022/12/07 07:20:42;;;;;;;9.90;1.30;;;4.80;99.90;;;;;;5066369;28;20182;-76
2022/12/07 07:23:07;;;;;;;7.93;1.45;;;4.70;99.90;;;;;;5069880;28;20190;-75
2022/12/07 07:25:34;;;;;;;10.60;1.45;;;4.70;99.90;;;;;;5066945;28;20186;-76
2022/12/07 07:28:00;;;;;;;7.10;1.30;;;4.70;99.90;;;;;;5069989;28;20202;-76
2022/12/07 07:30:26;;;;;;;3.65;1.02;;;4.70;99.90;;;;;;5066820;28;20249;-75
2022/12/07 07:32:59;;;;;;;6.97;1.38;;;4.70;99.90;;;;;;5071249;28;20182;-77
2022/12/07 07:35:26;;;;;;;5.07;1.10;;;4.70;99.90;;;;;;5072654;28;20271;-76
2022/12/07 07:37:51;;;;;;;5.32;1.20;;;4.70;99.90;;;;;;5071174;28;20190;-77
2022/12/07 07:40:17;;;;;;;4.63;1.10;;;4.80;99.90;;;;;;5071962;28;20254;-76
2022/12/07 07:42:43;;;;;;;6.47;1.23;;;4.80;99.90;;;;;;5065955;28;20187;-79
2022/12/07 07:45:09;;;;;;;7.10;1.17;;;4.90;99.90;;;;;;5071406;28;20720;-78
2022/12/07 07:47:35;;;;;;;10.00;1.40;;;4.90;99.90;;;;;;5073202;28;20241;-78
2022/12/07 07:50:01;;;;;;;4.82;1.20;;;4.90;99.90;;;;;;5072845;28;20270;-78
2022/12/07 07:52:27;;;;;;;9.43;1.88;;;5.00;99.90;;;;;;5072627;28;20182;-77
2022/12/07 07:54:52;;;;;;;3.97;1.35;;;5.00;99.90;;;;;;5051585;28;20191;-77
2022/12/07 07:57:18;;;;;;;8.73;1.80;;;5.00;99.90;;;;;;5056593;28;20194;-78
2022/12/07 07:59:44;;;;;;;12.20;2.22;;;5.00;99.90;;;;;;5073281;28;20186;-77
2022/12/07 08:02:15;;;;;;;17.52;2.15;;;5.00;99.90;;;;;;5070454;28;20217;-77
2022/12/07 08:04:41;;;;;;;12.43;1.80;;;5.00;99.90;;;;;;5068977;28;20194;-78
2022/12/07 08:07:06;;;;;;;12.65;2.20;;;5.00;99.90;;;;;;5073208;28;20173;-78
2022/12/07 08:09:32;;;;;;;9.40;1.70;;;5.00;99.90;;;;;;5080188;28;20186;-78
2022/12/07 08:11:58;;;;;;;7.43;1.83;;;5.00;99.90;;;;;;5072797;28;20212;-78
2022/12/07 08:14:24;;;;;;;16.40;1.70;;;5.00;99.90;;;;;;5071765;28;20247;-78
2022/12/07 08:16:50;;;;;;;11.43;2.00;;;5.00;99.90;;;;;;5071943;28;20630;-79
2022/12/07 08:19:16;;;;;;;15.48;1.80;;;5.00;99.90;;;;;;5073205;28;20234;-78
2022/12/07 08:21:41;;;;;;;9.07;2.08;;;5.00;99.90;;;;;;5072894;28;20194;-78
2022/12/07 08:24:07;;;;;;;12.88;2.08;;;5.00;99.90;;;;;;5071873;28;20178;-77
2022/12/07 08:26:33;;;;;;;9.80;1.85;;;5.10;99.90;;;;;;5070815;28;20214;-77
2022/12/07 08:28:59;;;;;;;10.27;2.10;;;5.10;99.90;;;;;;5071211;28;20249;-78
2022/12/07 08:31:25;;;;;;;10.40;2.22;;;5.10;99.90;;;;;;5071636;28;20186;-78
2022/12/07 08:33:51;;;;;;;7.45;2.33;;;5.20;99.90;;;;;;5052220;28;20599;-78
2022/12/07 08:36:17;;;;;;;13.05;3.28;;;5.30;99.90;;;;;;5066115;28;20183;-77
2022/12/07 08:38:43;;;;;;;12.93;2.60;;;5.20;99.90;;;;;;5060018;28;20275;-78
2022/12/07 08:41:09;;;;;;;15.40;2.70;;;5.40;99.90;;;;;;5053336;28;20225;-78
2022/12/07 08:43:36;;;;;;;8.60;2.00;;;5.50;99.90;;;;;;5071928;28;20635;-77
2022/12/07 08:46:20;;;;;;;9.82;2.15;;;5.50;99.90;;;;;;5071480;28;20182;-77
2022/12/07 08:49:02;;;;;;;11.98;2.05;;;5.50;99.90;;;;;;5072445;28;20213;-77
2022/12/07 08:51:28;;;;;;;10.50;1.40;;;5.60;99.90;;;;;;5069702;28;20167;-77
2022/12/07 08:53:55;;;;;;;6.28;1.55;;;5.80;99.90;;;;;;5053128;28;20194;-77
2022/12/07 08:56:21;;;;;;;10.13;1.58;;;5.90;99.90;;;;;;5070792;28;20186;-77
2022/12/07 08:58:48;;;;;;;12.13;1.95;;;6.30;99.90;;;;;;5085610;28;20186;-79
2022/12/07 09:01:14;;;;;;;10.48;1.90;;;6.60;99.90;;;;;;5072660;28;20179;-78
2022/12/07 09:03:39;;;;;;;8.55;1.73;;;6.90;99.90;;;;;;5071088;28;20205;-78
2022/12/07 09:06:06;;;;;;;16.52;2.00;;;7.30;99.90;;;;;;5074102;28;20261;-78
2022/12/07 09:08:37;;;;;;;11.55;1.85;;;7.60;99.90;;;;;;5067997;28;20206;-77
2022/12/07 09:11:03;;;;;;;11.68;1.88;;;8.00;99.90;;;;;;5051461;28;20211;-77
2022/12/07 09:13:29;;;;;;;9.38;1.75;;;8.30;99.90;;;;;;5057296;28;20229;-77
2022/12/07 09:15:54;;;;;;;7.63;1.60;;;8.40;99.90;;;;;;5073926;28;20718;-78
2022/12/07 09:18:20;;;;;;;7.13;1.45;;;8.50;99.90;;;;;;5074665;28;20317;-79
2022/12/07 09:20:46;;;;;;;9.27;1.67;;;8.50;99.90;;;;;;5074453;28;20188;-77
2022/12/07 09:23:12;;;;;;;8.27;1.48;;;8.40;99.90;;;;;;5075548;28;20194;-78
2022/12/07 09:25:37;;;;;;;12.15;1.70;;;8.50;99.90;;;;;;5075149;28;20247;-77
2022/12/07 09:28:03;;;;;;;8.20;1.33;;;8.50;99.90;;;;;;5057930;28;20216;-78
2022/12/07 09:30:29;;;;;;;7.43;1.40;;;8.60;99.90;;;;;;5090338;28;20666;-77
2022/12/07 09:32:56;;;;;;;8.00;1.52;;;8.70;99.90;;;;;;5074233;28;20273;-77
2022/12/07 09:35:23;;;;;;;9.38;1.55;;;8.80;99.90;;;;;;5074851;28;20247;-78
2022/12/07 09:37:49;;;;;;;5.60;1.10;;;8.80;99.90;;;;;;5075807;28;20183;-77
2022/12/07 09:40:17;;;;;;;6.65;1.30;;;8.70;99.90;;;;;;5066804;28;20631;-77
2022/12/07 09:42:47;;;;;;;5.60;1.15;;;8.60;99.90;;;;;;5072739;28;20643;-77
2022/12/07 09:45:21;;;;;;;5.22;1.25;;;8.40;99.90;;;;;;5075464;28;20193;-75
2022/12/07 09:47:47;;;;;;;5.05;1.40;;;8.20;99.90;;;;;;5073856;28;20209;-78
2022/12/07 09:50:16;;;;;;;6.10;1.60;;;8.00;99.90;;;;;;5069969;28;20318;-84
2022/12/07 09:52:45;;;;;;;5.60;1.08;;;7.80;99.90;;;;;;5074199;28;20650;-78
2022/12/07 09:55:16;;;;;;;10.00;1.17;;;7.80;99.90;;;;;;5075321;28;20268;-78
2022/12/07 09:57:44;;;;;;;5.18;1.00;;;7.70;99.90;;;;;;5075285;28;20187;-77
2022/12/07 10:00:18;;;;;;;5.72;1.35;;;7.70;99.90;;;;;;5072907;28;20205;-77
2022/12/07 10:03:01;;;;;;;3.95;1.27;;;7.80;99.90;;;;;;5074928;28;20193;-76
2022/12/07 10:05:37;;;;;;;9.75;1.42;;;7.80;99.90;;;;;;5078103;28;20170;-76
2022/12/07 10:08:03;;;;;;;8.07;1.60;;;7.70;99.90;;;;;;5075160;28;20195;-79
2022/12/07 10:10:34;;;;;;;9.93;1.88;;;7.70;99.90;;;;;;5072563;28;20190;-76
2022/12/07 10:13:04;;;;;;;4.10;1.30;;;7.70;99.90;;;;;;5075107;28;20201;-77
2022/12/07 10:15:53;;;;;;;8.23;1.50;;;7.80;99.90;;;;;;5073520;28;20206;-80
2022/12/07 10:18:25;;;;;;;7.40;1.52;;;8.00;99.90;;;;;;5077689;28;20178;-76
2022/12/07 10:21:26;;;;;;;10.68;1.50;;;8.10;99.90;;;;;;5069100;28;20178;-76
2022/12/07 10:24:10;;;;;;;10.93;1.90;;;8.20;99.90;;;;;;5072334;28;20236;-89
2022/12/07 10:26:38;;;;;;;7.35;1.42;;;8.30;99.90;;;;;;5074433;28;20262;-78
2022/12/07 10:29:29;;;;;;;10.18;2.00;;;8.40;99.90;;;;;;5074307;28;20210;-77
2022/12/07 10:31:57;;;;;;;8.50;1.70;;;8.50;99.90;;;;;;5070923;28;20193;-78
2022/12/07 10:34:34;;;;;;;11.95;1.80;;;8.60;99.90;;;;;;5072704;28;20688;-76
2022/12/07 10:37:12;;;;;;;12.57;1.88;;;8.80;99.90;;;;;;5065993;28;20174;-76
2022/12/07 10:39:51;;;;;;;9.10;2.13;;;8.90;99.90;;;;;;5084683;28;20714;-79
2022/12/07 10:42:21;;;;;;;7.55;2.00;;;9.10;99.90;;;;;;5064131;28;20171;-80
2022/12/07 10:44:49;;;;;;;11.05;1.80;;;9.30;99.90;;;;;;5065478;28;20623;-80
2022/12/07 10:47:28;;;;;;;9.82;2.33;;;9.40;99.90;;;;;;5072884;28;20304;-75
2022/12/07 10:50:27;;;;;;;8.20;2.25;;;9.50;99.90;;;;;;5070663;28;20230;-78
2022/12/07 10:53:14;;;;;;;11.60;1.83;;;9.50;99.90;;;;;;5072825;28;20245;-79
2022/12/07 10:56:04;;;;;;;10.68;1.70;;;9.50;99.90;;;;;;5072085;28;20170;-78
2022/12/07 10:59:05;;;;;;;11.45;2.08;;;9.40;99.90;;;;;;5061274;28;20198;-77
2022/12/07 11:01:56;;;;;;;6.07;1.50;;;9.10;99.90;;;;;;5011979;28;20197;-74
2022/12/07 11:04:21;;;;;;;6.60;1.20;;;8.90;99.90;;;;;;5064797;28;20613;-76
2022/12/07 11:07:21;;;;;;;10.95;1.38;;;8.60;99.90;;;;;;5070797;28;20191;-76
2022/12/07 11:10:31;;;;;;;6.05;1.25;;;8.40;99.90;;;;;;5065215;28;20190;-74
2022/12/07 11:13:16;;;;;;;5.28;1.25;;;8.20;99.90;;;;;;5083663;28;20248;-73
2022/12/07 11:16:27;;;;;;;6.82;1.30;;;8.00;99.90;;;;;;5068372;28;20239;-78
2022/12/07 11:19:19;;;;;;;7.00;1.73;;;7.90;99.90;;;;;;5047918;28;20295;-75
2022/12/07 11:22:14;;;;;;;9.63;1.70;;;7.90;99.90;;;;;;5070558;28;20258;-78
2022/12/07 11:25:12;;;;;;;9.90;2.47;;;7.90;99.90;;;;;;5061223;28;20269;-79
2022/12/07 11:27:44;;;;;;;12.90;1.65;;;7.80;99.90;;;;;;5059931;28;20222;-74
2022/12/07 11:30:23;;;;;;;10.40;1.95;;;7.90;99.90;;;;;;5071461;28;20256;-76
2022/12/07 11:32:53;;;;;;;7.53;1.92;;;7.90;99.90;;;;;;5073441;28;20201;-75
2022/12/07 11:35:56;;;;;;;6.72;1.50;;;7.90;99.90;;;;;;5067226;28;20182;-78
2022/12/07 11:38:35;;;;;;;11.23;1.60;;;8.00;99.90;;;;;;5069048;28;20190;-75
2022/12/07 11:41:12;;;;;;;11.93;1.70;;;8.10;99.90;;;;;;5072137;28;20163;-74
2022/12/07 11:44:00;;;;;;;9.50;1.75;;;8.20;99.90;;;;;;5071208;28;20178;-74
2022/12/07 11:46:39;;;;;;;12.82;2.20;;;8.40;99.90;;;;;;5070270;28;20219;-75
2022/12/07 11:49:18;;;;;;;7.80;1.50;;;8.40;99.90;;;;;;5071525;28;20198;-76
2022/12/07 11:51:46;;;;;;;12.07;1.67;;;8.60;99.90;;;;;;5070621;28;20187;-75
2022/12/07 11:54:20;;;;;;;11.43;1.50;;;8.60;99.90;;;;;;5070664;28;20223;-75
2022/12/07 11:56:49;;;;;;;12.00;1.55;;;8.60;99.90;;;;;;5070805;28;20213;-79
2022/12/07 11:59:36;;;;;;;6.13;1.70;;;8.60;99.90;;;;;;5061477;28;20265;-76
2022/12/07 12:02:26;;;;;;;6.40;1.60;;;8.50;99.90;;;;;;5053710;28;20169;-75
2022/12/07 12:05:02;;;;;;;5.85;1.33;;;8.50;99.90;;;;;;5071581;28;20593;-75
2022/12/07 12:07:28;;;;;;;14.05;1.75;;;8.50;99.90;;;;;;5092765;28;20205;-75
2022/12/07 12:10:22;;;;;;;6.55;1.40;;;8.50;99.90;;;;;;5076616;28;20182;-75
2022/12/07 12:13:07;;;;;;;7.40;1.17;;;8.40;99.90;;;;;;5071734;28;20517;-78
2022/12/07 12:16:02;;;;;;;9.52;1.30;;;8.30;99.90;;;;;;5070118;28;20185;-76
2022/12/07 12:18:49;;;;;;;5.18;1.60;;;8.20;99.90;;;;;;5069858;28;20438;-76
2022/12/07 12:21:23;;;;;;;6.03;1.50;;;8.20;99.90;;;;;;5070505;28;20595;-74
2022/12/07 12:23:57;;;;;;;9.60;1.65;;;8.10;99.90;;;;;;5071676;28;20753;-75
2022/12/07 12:26:26;;;;;;;6.15;1.42;;;8.00;99.90;;;;;;5053324;28;20232;-74
2022/12/07 12:28:58;;;;;;;6.07;1.55;;;8.00;99.90;;;;;;5067964;28;20345;-74
2022/12/07 12:31:30;;;;;;;6.47;1.50;;;7.90;99.90;;;;;;5071934;28;20174;-75
2022/12/07 12:33:58;;;;;;;8.45;1.67;;;7.90;99.90;;;;;;5072531;28;20520;-75
2022/12/07 12:36:26;;;;;;;13.00;1.63;;;7.90;99.90;;;;;;5072062;28;20284;-74
2022/12/07 12:38:58;;;;;;;4.72;1.40;;;7.90;99.90;;;;;;5072067;28;20263;-74
2022/12/07 12:44:19;;;;;;;13.32;1.80;;;7.90;99.90;;;;;;5059487;28;20178;-75
2022/12/07 12:46:45;;;;;;;8.32;1.60;;;7.90;99.90;;;;;;5071187;28;20183;-74
2022/12/07 12:49:20;;;;;;;9.82;1.58;;;7.90;99.90;;;;;;5070517;28;20306;-75
2022/12/07 12:51:47;;;;;;;5.35;1.27;;;7.90;99.90;;;;;;5074871;28;20190;-74
2022/12/07 12:54:25;;;;;;;7.53;1.60;;;7.90;99.90;;;;;;5072715;28;20182;-74
2022/12/07 12:57:20;;;;;;;7.07;1.80;;;7.90;99.90;;;;;;5076167;28;20167;-74
2022/12/07 12:59:57;;;;;;;10.48;1.52;;;7.90;99.90;;;;;;5070808;28;20182;-79
2022/12/07 13:02:26;;;;;;;5.80;1.27;;;7.80;99.90;;;;;;5076400;28;20189;-75
2022/12/07 13:05:03;;;;;;;14.02;2.03;;;7.70;99.90;;;;;;5076562;28;20186;-73
2022/12/07 13:07:47;;;;;;;4.97;1.38;;;7.70;99.90;;;;;;5096269;28;20197;-74
2022/12/07 13:10:30;;;;;;;7.60;1.80;;;7.60;99.90;;;;;;5077497;28;20649;-74
2022/12/07 13:13:12;;;;;;;9.32;1.90;;;7.50;99.90;;;;;;5075634;28;20251;-80
2022/12/07 13:15:42;;;;;;;6.13;1.48;;;7.50;99.90;;;;;;5073213;28;20182;-74
2022/12/07 13:18:31;;;;;;;10.60;1.95;;;7.50;99.90;;;;;;5075870;28;20210;-73
2022/12/07 13:20:57;;;;;;;7.18;1.50;;;7.40;99.90;;;;;;5060943;28;20199;-73
2022/12/07 13:23:46;;;;;;;9.82;2.00;;;7.50;99.90;;;;;;5073682;28;20261;-75